sensor_id;sensor_type;location;lat;lon;timestamp;temperature;humidity
22161;DHT22;49035;48.812;11.762;2023-05-10T00:02:25;13.00;99.90
22161;DHT22;49035;48.812;11.762;2023-05-10T00:04:50;13.00;99.90
22161;DHT22;49035;48.812;11.762;2023-05-10T00:07:16;12.90;99.90
22161;DHT22;49035;48.812;11.762;2023-05-10T00:09:45;12.80;99.90
22161;DHT22;49035;48.812;11.762;2023-05-10T00:12:11;12.70;99.90
22161;DHT22;49035;48.812;11.762;2023-05-10T00:14:37;12.60;99.90
22161;DHT22;49035;48.812;11.762;2023-05-10T00:17:03;12.60;99.90
22161;DHT22;49035;48.812;11.762;2023-05-10T00:19:28;12.60;99.90
22161;DHT22;49035;48.812;11.762;2023-05-10T00:21:54;12.60;99.90
22161;DHT22;49035;48.812;11.762;2023-05-10T00:24:19;12.60;99.90
22161;DHT22;49035;48.812;11.762;2023-05-10T00:26:45;12.60;99.90
22161;DHT22;49035;48.812;11.762;2023-05-10T00:29:10;12.60;99.90
22161;DHT22;49035;48.812;11.762;2023-05-10T00:31:36;12.70;99.90
22161;DHT22;49035;48.812;11.762;2023-05-10T00:34:01;12.60;99.90
22161;DHT22;49035;48.812;11.762;2023-05-10T00:36:27;12.70;99.90
22161;DHT22;49035;48.812;11.762;2023-05-10T00:38:53;12.70;99.90
22161;DHT22;49035;48.812;11.762;2023-05-10T00:41:18;12.60;99.90
22161;DHT22;49035;48.812;11.762;2023-05-10T00:43:44;12.60;99.90
22161;DHT22;49035;48.812;11.762;2023-05-10T00:46:10;12.60;99.90
22161;DHT22;49035;48.812;11.762;2023-05-10T00:48:36;12.60;99.90
22161;DHT22;49035;48.812;11.762;2023-05-10T00:51:02;12.70;99.90
22161;DHT22;49035;48.812;11.762;2023-05-10T00:53:27;12.70;99.90
22161;DHT22;49035;48.812;11.762;2023-05-10T00:55:54;12.80;99.90
22161;DHT22;49035;48.812;11.762;2023-05-10T00:58:19;12.80;99.90
22161;DHT22;49035;48.812;11.762;2023-05-10T01:00:46;12.80;99.90
22161;DHT22;49035;48.812;11.762;2023-05-10T01:03:12;13.00;99.90
22161;DHT22;49035;48.812;11.762;2023-05-10T01:05:39;13.00;99.90
22161;DHT22;49035;48.812;11.762;2023-05-10T01:08:05;13.00;99.90
22161;DHT22;49035;48.812;11.762;2023-05-10T01:10:31;13.10;99.90
22161;DHT22;49035;48.812;11.762;2023-05-10T01:12:58;13.10;99.90
22161;DHT22;49035;48.812;11.762;2023-05-10T01:15:24;13.10;99.90
22161;DHT22;49035;48.812;11.762;2023-05-10T01:17:51;13.10;99.90
22161;DHT22;49035;48.812;11.762;2023-05-10T01:20:17;13.00;99.90
22161;DHT22;49035;48.812;11.762;2023-05-10T01:34:13;12.90;99.90
22161;DHT22;49035;48.812;11.762;2023-05-10T01:36:51;12.90;99.90
22161;DHT22;49035;48.812;11.762;2023-05-10T01:39:32;12.90;99.90
22161;DHT22;49035;48.812;11.762;2023-05-10T01:44:38;12.80;99.90
22161;DHT22;49035;48.812;11.762;2023-05-10T01:47:09;12.80;99.90
22161;DHT22;49035;48.812;11.762;2023-05-10T01:49:41;12.80;99.90
22161;DHT22;49035;48.812;11.762;2023-05-10T01:52:10;12.80;99.90
22161;DHT22;49035;48.812;11.762;2023-05-10T01:54:44;12.80;99.90
22161;DHT22;49035;48.812;11.762;2023-05-10T01:57:15;12.80;99.90
22161;DHT22;49035;48.812;11.762;2023-05-10T01:59:43;12.70;99.90
22161;DHT22;49035;48.812;11.762;2023-05-10T02:02:12;12.70;99.90
22161;DHT22;49035;48.812;11.762;2023-05-10T02:04:40;12.80;99.90
22161;DHT22;49035;48.812;11.762;2023-05-10T02:07:08;12.80;99.90
22161;DHT22;49035;48.812;11.762;2023-05-10T02:09:34;12.80;99.90
22161;DHT22;49035;48.812;11.762;2023-05-10T02:12:02;12.80;99.90
22161;DHT22;49035;48.812;11.762;2023-05-10T02:14:30;12.80;99.90
22161;DHT22;49035;48.812;11.762;2023-05-10T02:16:58;12.80;99.90
22161;DHT22;49035;48.812;11.762;2023-05-10T02:19:26;12.80;99.90
22161;DHT22;49035;48.812;11.762;2023-05-10T02:21:55;12.90;99.90
22161;DHT22;49035;48.812;11.762;2023-05-10T02:24:21;12.80;99.90
22161;DHT22;49035;48.812;11.762;2023-05-10T02:26:48;12.80;99.90
22161;DHT22;49035;48.812;11.762;2023-05-10T02:29:16;12.80;99.90
22161;DHT22;49035;48.812;11.762;2023-05-10T02:31:42;12.80;99.90
22161;DHT22;49035;48.812;11.762;2023-05-10T02:34:10;12.80;99.90
22161;DHT22;49035;48.812;11.762;2023-05-10T02:36:38;12.80;99.90
22161;DHT22;49035;48.812;11.762;2023-05-10T02:39:04;12.80;99.90
22161;DHT22;49035;48.812;11.762;2023-05-10T02:41:35;12.80;99.90
22161;DHT22;49035;48.812;11.762;2023-05-10T02:44:02;12.80;99.90
22161;DHT22;49035;48.812;11.762;2023-05-10T02:46:29;12.80;99.90
22161;DHT22;49035;48.812;11.762;2023-05-10T02:48:55;12.80;99.90
22161;DHT22;49035;48.812;11.762;2023-05-10T02:51:25;12.80;99.90
22161;DHT22;49035;48.812;11.762;2023-05-10T02:53:54;12.80;99.90
22161;DHT22;49035;48.812;11.762;2023-05-10T02:56:25;12.70;99.90
22161;DHT22;49035;48.812;11.762;2023-05-10T02:58:53;12.70;99.90
22161;DHT22;49035;48.812;11.762;2023-05-10T03:01:18;12.80;99.90
22161;DHT22;49035;48.812;11.762;2023-05-10T03:03:44;12.70;99.90
22161;DHT22;49035;48.812;11.762;2023-05-10T03:06:09;12.80;99.90
22161;DHT22;49035;48.812;11.762;2023-05-10T03:08:35;12.70;99.90
22161;DHT22;49035;48.812;11.762;2023-05-10T03:16:52;12.80;99.90
22161;DHT22;49035;48.812;11.762;2023-05-10T03:19:27;12.80;99.90
22161;DHT22;49035;48.812;11.762;2023-05-10T03:21:59;12.70;99.90
22161;DHT22;49035;48.812;11.762;2023-05-10T03:24:27;12.70;99.90
22161;DHT22;49035;48.812;11.762;2023-05-10T03:26:56;12.70;99.90
22161;DHT22;49035;48.812;11.762;2023-05-10T03:29:23;12.70;99.90
22161;DHT22;49035;48.812;11.762;2023-05-10T03:31:50;12.70;99.90
22161;DHT22;49035;48.812;11.762;2023-05-10T03:34:16;12.70;99.90
22161;DHT22;49035;48.812;11.762;2023-05-10T03:36:48;12.70;99.90
22161;DHT22;49035;48.812;11.762;2023-05-10T03:39:13;12.80;99.90
22161;DHT22;49035;48.812;11.762;2023-05-10T03:41:39;12.80;99.90
22161;DHT22;49035;48.812;11.762;2023-05-10T03:44:05;12.80;99.90
22161;DHT22;49035;48.812;11.762;2023-05-10T03:46:30;12.80;99.90
22161;DHT22;49035;48.812;11.762;2023-05-10T03:48:56;12.80;99.90
22161;DHT22;49035;48.812;11.762;2023-05-10T03:51:22;12.90;99.90
22161;DHT22;49035;48.812;11.762;2023-05-10T03:53:47;12.90;99.90
22161;DHT22;49035;48.812;11.762;2023-05-10T03:56:13;12.90;99.90
22161;DHT22;49035;48.812;11.762;2023-05-10T03:58:38;12.90;99.90
22161;DHT22;49035;48.812;11.762;2023-05-10T04:01:04;12.90;99.90
22161;DHT22;49035;48.812;11.762;2023-05-10T04:03:29;12.90;99.90
22161;DHT22;49035;48.812;11.762;2023-05-10T04:06:00;12.90;99.90
22161;DHT22;49035;48.812;11.762;2023-05-10T04:08:26;12.90;99.90
22161;DHT22;49035;48.812;11.762;2023-05-10T04:10:51;12.90;99.90
22161;DHT22;49035;48.812;11.762;2023-05-10T04:13:17;12.80;99.90
22161;DHT22;49035;48.812;11.762;2023-05-10T04:15:43;12.80;99.90
22161;DHT22;49035;48.812;11.762;2023-05-10T04:18:09;12.80;99.90
22161;DHT22;49035;48.812;11.762;2023-05-10T04:20:35;12.80;99.90
22161;DHT22;49035;48.812;11.762;2023-05-10T04:23:01;12.80;99.90
22161;DHT22;49035;48.812;11.762;2023-05-10T04:25:26;12.80;99.90
22161;DHT22;49035;48.812;11.762;2023-05-10T04:27:52;12.80;99.90
22161;DHT22;49035;48.812;11.762;2023-05-10T04:30:18;12.80;99.90
22161;DHT22;49035;48.812;11.762;2023-05-10T04:32:43;12.90;99.90
22161;DHT22;49035;48.812;11.762;2023-05-10T04:35:09;13.00;99.90
22161;DHT22;49035;48.812;11.762;2023-05-10T04:37:35;13.00;99.90
22161;DHT22;49035;48.812;11.762;2023-05-10T04:40:02;13.00;99.90
22161;DHT22;49035;48.812;11.762;2023-05-10T04:42:28;13.00;99.90
22161;DHT22;49035;48.812;11.762;2023-05-10T04:44:54;13.00;99.90
22161;DHT22;49035;48.812;11.762;2023-05-10T04:47:20;13.00;99.90
22161;DHT22;49035;48.812;11.762;2023-05-10T04:49:45;12.90;99.90
22161;DHT22;49035;48.812;11.762;2023-05-10T04:52:11;12.90;99.90
22161;DHT22;49035;48.812;11.762;2023-05-10T04:54:36;12.80;99.90
22161;DHT22;49035;48.812;11.762;2023-05-10T04:57:02;12.80;99.90
22161;DHT22;49035;48.812;11.762;2023-05-10T04:59:28;12.80;99.90
22161;DHT22;49035;48.812;11.762;2023-05-10T05:01:53;12.80;99.90
22161;DHT22;49035;48.812;11.762;2023-05-10T05:04:19;12.80;99.90
22161;DHT22;49035;48.812;11.762;2023-05-10T05:06:44;12.80;99.90
22161;DHT22;49035;48.812;11.762;2023-05-10T05:09:10;12.80;99.90
22161;DHT22;49035;48.812;11.762;2023-05-10T05:11:36;12.80;99.90
22161;DHT22;49035;48.812;11.762;2023-05-10T05:14:01;12.90;99.90
22161;DHT22;49035;48.812;11.762;2023-05-10T05:16:27;12.90;99.90
22161;DHT22;49035;48.812;11.762;2023-05-10T05:18:55;12.90;99.90
22161;DHT22;49035;48.812;11.762;2023-05-10T05:21:21;12.90;99.90
22161;DHT22;49035;48.812;11.762;2023-05-10T05:23:47;13.00;99.90
22161;DHT22;49035;48.812;11.762;2023-05-10T05:26:13;13.00;99.90
22161;DHT22;49035;48.812;11.762;2023-05-10T05:28:38;13.00;99.90
22161;DHT22;49035;48.812;11.762;2023-05-10T05:31:05;13.10;99.90
22161;DHT22;49035;48.812;11.762;2023-05-10T05:33:31;13.00;99.90
22161;DHT22;49035;48.812;11.762;2023-05-10T05:35:57;13.00;99.90
22161;DHT22;49035;48.812;11.762;2023-05-10T05:38:22;13.00;99.90
22161;DHT22;49035;48.812;11.762;2023-05-10T05:40:48;13.00;99.90
22161;DHT22;49035;48.812;11.762;2023-05-10T05:43:14;12.80;99.90
22161;DHT22;49035;48.812;11.762;2023-05-10T05:45:40;12.80;99.90
22161;DHT22;49035;48.812;11.762;2023-05-10T05:48:05;12.70;99.90
22161;DHT22;49035;48.812;11.762;2023-05-10T05:50:31;12.70;99.90
22161;DHT22;49035;48.812;11.762;2023-05-10T05:52:57;12.70;99.90
22161;DHT22;49035;48.812;11.762;2023-05-10T05:55:22;12.80;99.90
22161;DHT22;49035;48.812;11.762;2023-05-10T05:57:49;12.70;99.90
22161;DHT22;49035;48.812;11.762;2023-05-10T06:00:15;12.80;99.90
22161;DHT22;49035;48.812;11.762;2023-05-10T06:02:41;12.80;99.90
22161;DHT22;49035;48.812;11.762;2023-05-10T06:05:07;12.90;99.90
22161;DHT22;49035;48.812;11.762;2023-05-10T06:07:33;12.90;99.90
22161;DHT22;49035;48.812;11.762;2023-05-10T06:09:58;13.00;99.90
22161;DHT22;49035;48.812;11.762;2023-05-10T06:12:24;13.00;99.90
22161;DHT22;49035;48.812;11.762;2023-05-10T06:14:50;13.00;99.90
22161;DHT22;49035;48.812;11.762;2023-05-10T06:17:15;13.00;99.90
22161;DHT22;49035;48.812;11.762;2023-05-10T06:19:41;13.00;99.90
22161;DHT22;49035;48.812;11.762;2023-05-10T06:22:06;12.90;99.90
22161;DHT22;49035;48.812;11.762;2023-05-10T06:24:32;12.80;99.90
22161;DHT22;49035;48.812;11.762;2023-05-10T06:26:57;12.60;99.90
22161;DHT22;49035;48.812;11.762;2023-05-10T06:29:25;12.50;99.90
22161;DHT22;49035;48.812;11.762;2023-05-10T06:31:51;12.50;99.90
22161;DHT22;49035;48.812;11.762;2023-05-10T06:34:16;12.50;99.90
22161;DHT22;49035;48.812;11.762;2023-05-10T06:36:42;12.50;99.90
22161;DHT22;49035;48.812;11.762;2023-05-10T06:39:08;12.60;99.90
22161;DHT22;49035;48.812;11.762;2023-05-10T06:41:33;12.80;99.90
22161;DHT22;49035;48.812;11.762;2023-05-10T06:43:59;13.00;99.90
22161;DHT22;49035;48.812;11.762;2023-05-10T06:46:24;13.10;99.90
22161;DHT22;49035;48.812;11.762;2023-05-10T06:48:50;13.20;99.90
22161;DHT22;49035;48.812;11.762;2023-05-10T06:51:15;13.20;99.90
22161;DHT22;49035;48.812;11.762;2023-05-10T06:53:41;13.30;99.90
22161;DHT22;49035;48.812;11.762;2023-05-10T06:56:06;13.30;99.90
22161;DHT22;49035;48.812;11.762;2023-05-10T06:58:32;13.30;99.90
22161;DHT22;49035;48.812;11.762;2023-05-10T07:01:05;13.20;99.90
22161;DHT22;49035;48.812;11.762;2023-05-10T07:03:31;13.20;99.90
22161;DHT22;49035;48.812;11.762;2023-05-10T07:06:04;13.20;99.90
22161;DHT22;49035;48.812;11.762;2023-05-10T07:08:33;13.10;99.90
22161;DHT22;49035;48.812;11.762;2023-05-10T07:11:00;13.00;99.90
22161;DHT22;49035;48.812;11.762;2023-05-10T07:13:26;13.00;99.90
22161;DHT22;49035;48.812;11.762;2023-05-10T07:15:52;13.10;99.90
22161;DHT22;49035;48.812;11.762;2023-05-10T07:18:17;13.20;99.90
22161;DHT22;49035;48.812;11.762;2023-05-10T07:20:43;13.40;99.90
22161;DHT22;49035;48.812;11.762;2023-05-10T07:23:08;13.90;99.90
22161;DHT22;49035;48.812;11.762;2023-05-10T07:25:34;14.50;99.90
22161;DHT22;49035;48.812;11.762;2023-05-10T07:27:59;15.10;99.90
22161;DHT22;49035;48.812;11.762;2023-05-10T07:30:25;15.50;99.90
22161;DHT22;49035;48.812;11.762;2023-05-10T07:32:50;15.50;99.90
22161;DHT22;49035;48.812;11.762;2023-05-10T07:35:16;15.50;99.90
22161;DHT22;49035;48.812;11.762;2023-05-10T07:37:42;15.90;99.90
22161;DHT22;49035;48.812;11.762;2023-05-10T07:40:08;16.10;99.90
22161;DHT22;49035;48.812;11.762;2023-05-10T07:42:34;16.30;99.90
22161;DHT22;49035;48.812;11.762;2023-05-10T07:44:59;16.50;99.90
22161;DHT22;49035;48.812;11.762;2023-05-10T07:47:25;16.50;99.90
22161;DHT22;49035;48.812;11.762;2023-05-10T07:49:51;16.50;99.90
22161;DHT22;49035;48.812;11.762;2023-05-10T07:52:16;16.60;99.90
22161;DHT22;49035;48.812;11.762;2023-05-10T07:54:42;16.70;99.90
22161;DHT22;49035;48.812;11.762;2023-05-10T07:57:08;16.80;99.90
22161;DHT22;49035;48.812;11.762;2023-05-10T07:59:33;17.00;99.90
22161;DHT22;49035;48.812;11.762;2023-05-10T08:01:59;17.10;99.90
22161;DHT22;49035;48.812;11.762;2023-05-10T08:04:25;17.10;99.90
22161;DHT22;49035;48.812;11.762;2023-05-10T08:06:51;17.10;99.90
22161;DHT22;49035;48.812;11.762;2023-05-10T08:09:16;17.00;99.90
22161;DHT22;49035;48.812;11.762;2023-05-10T08:11:43;17.30;99.90
22161;DHT22;49035;48.812;11.762;2023-05-10T08:14:08;17.20;99.90
22161;DHT22;49035;48.812;11.762;2023-05-10T08:16:34;17.20;99.90
22161;DHT22;49035;48.812;11.762;2023-05-10T08:18:59;17.10;99.90
22161;DHT22;49035;48.812;11.762;2023-05-10T08:21:25;16.70;99.90
22161;DHT22;49035;48.812;11.762;2023-05-10T08:23:51;16.50;99.90
22161;DHT22;49035;48.812;11.762;2023-05-10T08:26:17;16.40;99.90
22161;DHT22;49035;48.812;11.762;2023-05-10T08:28:42;16.20;99.90
22161;DHT22;49035;48.812;11.762;2023-05-10T08:31:08;16.30;99.90
22161;DHT22;49035;48.812;11.762;2023-05-10T08:33:33;16.20;99.90
22161;DHT22;49035;48.812;11.762;2023-05-10T08:35:59;16.30;99.90
22161;DHT22;49035;48.812;11.762;2023-05-10T08:38:24;16.40;99.90
22161;DHT22;49035;48.812;11.762;2023-05-10T08:40:54;16.60;99.90
22161;DHT22;49035;48.812;11.762;2023-05-10T08:43:26;16.90;99.90
22161;DHT22;49035;48.812;11.762;2023-05-10T08:45:53;17.30;99.90
22161;DHT22;49035;48.812;11.762;2023-05-10T08:48:20;17.80;99.90
22161;DHT22;49035;48.812;11.762;2023-05-10T08:50:48;18.00;99.90
22161;DHT22;49035;48.812;11.762;2023-05-10T08:53:16;18.00;99.90
22161;DHT22;49035;48.812;11.762;2023-05-10T08:55:42;18.40;99.90
22161;DHT22;49035;48.812;11.762;2023-05-10T08:58:09;18.70;99.90
22161;DHT22;49035;48.812;11.762;2023-05-10T09:00:35;18.70;99.90
22161;DHT22;49035;48.812;11.762;2023-05-10T09:03:03;18.60;99.90
22161;DHT22;49035;48.812;11.762;2023-05-10T09:05:29;18.80;99.90
22161;DHT22;49035;48.812;11.762;2023-05-10T09:07:55;18.10;99.90
22161;DHT22;49035;48.812;11.762;2023-05-10T09:10:21;17.80;99.90
22161;DHT22;49035;48.812;11.762;2023-05-10T09:12:48;17.80;99.90
22161;DHT22;49035;48.812;11.762;2023-05-10T09:15:17;18.10;99.90
22161;DHT22;49035;48.812;11.762;2023-05-10T09:17:45;18.50;99.90
22161;DHT22;49035;48.812;11.762;2023-05-10T09:20:10;18.50;99.90
22161;DHT22;49035;48.812;11.762;2023-05-10T09:22:36;18.60;99.90
22161;DHT22;49035;48.812;11.762;2023-05-10T09:25:10;18.20;99.90
22161;DHT22;49035;48.812;11.762;2023-05-10T09:27:38;18.30;99.90
22161;DHT22;49035;48.812;11.762;2023-05-10T09:30:05;17.30;99.90
22161;DHT22;49035;48.812;11.762;2023-05-10T09:32:45;16.80;99.90
22161;DHT22;49035;48.812;11.762;2023-05-10T09:37:39;16.10;99.90
22161;DHT22;49035;48.812;11.762;2023-05-10T09:40:12;15.60;99.90
22161;DHT22;49035;48.812;11.762;2023-05-10T09:42:38;15.60;99.90
22161;DHT22;49035;48.812;11.762;2023-05-10T09:45:05;16.00;99.90
22161;DHT22;49035;48.812;11.762;2023-05-10T09:47:34;16.60;99.90
22161;DHT22;49035;48.812;11.762;2023-05-10T09:50:02;17.50;99.90
22161;DHT22;49035;48.812;11.762;2023-05-10T09:52:49;18.30;99.90
22161;DHT22;49035;48.812;11.762;2023-05-10T09:55:38;18.80;99.90
22161;DHT22;49035;48.812;11.762;2023-05-10T09:58:02;19.10;99.90
22161;DHT22;49035;48.812;11.762;2023-05-10T10:00:28;19.10;99.90
22161;DHT22;49035;48.812;11.762;2023-05-10T10:03:01;19.10;99.90
22161;DHT22;49035;48.812;11.762;2023-05-10T10:05:30;19.00;99.90
22161;DHT22;49035;48.812;11.762;2023-05-10T10:07:57;19.50;99.90
22161;DHT22;49035;48.812;11.762;2023-05-10T10:10:25;20.10;99.60
22161;DHT22;49035;48.812;11.762;2023-05-10T10:12:51;20.30;98.70
22161;DHT22;49035;48.812;11.762;2023-05-10T10:15:17;20.80;98.70
22161;DHT22;49035;48.812;11.762;2023-05-10T10:17:43;20.60;96.70
22161;DHT22;49035;48.812;11.762;2023-05-10T10:20:09;20.40;95.00
22161;DHT22;49035;48.812;11.762;2023-05-10T10:22:36;20.20;94.30
22161;DHT22;49035;48.812;11.762;2023-05-10T10:25:04;20.20;95.90
22161;DHT22;49035;48.812;11.762;2023-05-10T10:27:56;20.10;94.60
22161;DHT22;49035;48.812;11.762;2023-05-10T10:30:44;20.10;95.50
22161;DHT22;49035;48.812;11.762;2023-05-10T10:33:39;20.30;93.00
22161;DHT22;49035;48.812;11.762;2023-05-10T10:36:06;20.00;94.00
22161;DHT22;49035;48.812;11.762;2023-05-10T10:38:55;20.00;96.10
22161;DHT22;49035;48.812;11.762;2023-05-10T10:41:50;20.00;93.60
22161;DHT22;49035;48.812;11.762;2023-05-10T10:54:57;19.40;94.20
22161;DHT22;49035;48.812;11.762;2023-05-10T10:57:24;19.10;93.70
22161;DHT22;49035;48.812;11.762;2023-05-10T10:59:53;18.90;94.60
22161;DHT22;49035;48.812;11.762;2023-05-10T11:02:44;18.80;98.00
22161;DHT22;49035;48.812;11.762;2023-05-10T11:07:59;19.20;93.00
22161;DHT22;49035;48.812;11.762;2023-05-10T11:10:26;19.00;96.10
22161;DHT22;49035;48.812;11.762;2023-05-10T11:15:19;19.40;92.20
22161;DHT22;49035;48.812;11.762;2023-05-10T11:17:47;19.60;92.50
22161;DHT22;49035;48.812;11.762;2023-05-10T11:20:20;19.90;91.10
22161;DHT22;49035;48.812;11.762;2023-05-10T11:22:53;19.70;91.30
22161;DHT22;49035;48.812;11.762;2023-05-10T11:25:19;20.00;93.50
22161;DHT22;49035;48.812;11.762;2023-05-10T11:27:47;20.50;90.30
22161;DHT22;49035;48.812;11.762;2023-05-10T11:30:14;21.00;93.60
22161;DHT22;49035;48.812;11.762;2023-05-10T11:32:40;21.70;90.90
22161;DHT22;49035;48.812;11.762;2023-05-10T11:35:10;21.90;81.60
22161;DHT22;49035;48.812;11.762;2023-05-10T11:37:37;22.00;83.60
22161;DHT22;49035;48.812;11.762;2023-05-10T11:40:10;22.00;81.50
22161;DHT22;49035;48.812;11.762;2023-05-10T11:42:38;22.10;85.30
22161;DHT22;49035;48.812;11.762;2023-05-10T11:45:05;22.30;81.70
22161;DHT22;49035;48.812;11.762;2023-05-10T11:47:31;22.10;78.80
22161;DHT22;49035;48.812;11.762;2023-05-10T11:49:57;21.60;83.00
22161;DHT22;49035;48.812;11.762;2023-05-10T11:52:23;21.50;80.80
22161;DHT22;49035;48.812;11.762;2023-05-10T11:54:53;21.40;81.20
22161;DHT22;49035;48.812;11.762;2023-05-10T11:57:20;21.60;79.20
22161;DHT22;49035;48.812;11.762;2023-05-10T11:59:53;21.80;83.30
22161;DHT22;49035;48.812;11.762;2023-05-10T12:02:18;21.30;84.00
22161;DHT22;49035;48.812;11.762;2023-05-10T12:04:44;21.30;84.60
22161;DHT22;49035;48.812;11.762;2023-05-10T12:07:10;21.20;84.40
22161;DHT22;49035;48.812;11.762;2023-05-10T12:09:35;20.40;86.10
22161;DHT22;49035;48.812;11.762;2023-05-10T12:12:02;19.60;88.40
22161;DHT22;49035;48.812;11.762;2023-05-10T12:14:28;18.70;90.50
22161;DHT22;49035;48.812;11.762;2023-05-10T12:16:58;18.10;93.40
22161;DHT22;49035;48.812;11.762;2023-05-10T12:19:24;17.80;95.30
22161;DHT22;49035;48.812;11.762;2023-05-10T12:21:49;17.50;95.20
22161;DHT22;49035;48.812;11.762;2023-05-10T12:24:15;17.40;96.50
22161;DHT22;49035;48.812;11.762;2023-05-10T12:26:45;17.30;94.60
22161;DHT22;49035;48.812;11.762;2023-05-10T12:29:20;17.40;95.30
22161;DHT22;49035;48.812;11.762;2023-05-10T12:34:30;18.30;97.40
22161;DHT22;49035;48.812;11.762;2023-05-10T12:36:56;18.80;94.00
22161;DHT22;49035;48.812;11.762;2023-05-10T12:39:22;18.90;90.30
22161;DHT22;49035;48.812;11.762;2023-05-10T12:41:47;18.90;88.30
22161;DHT22;49035;48.812;11.762;2023-05-10T12:44:13;18.90;88.40
22161;DHT22;49035;48.812;11.762;2023-05-10T12:46:38;19.10;88.20
22161;DHT22;49035;48.812;11.762;2023-05-10T12:49:04;19.50;86.10
22161;DHT22;49035;48.812;11.762;2023-05-10T12:51:30;20.00;86.20
22161;DHT22;49035;48.812;11.762;2023-05-10T12:53:56;20.00;84.40
22161;DHT22;49035;48.812;11.762;2023-05-10T12:56:22;19.50;87.70
22161;DHT22;49035;48.812;11.762;2023-05-10T12:58:47;19.40;90.50
22161;DHT22;49035;48.812;11.762;2023-05-10T13:01:14;19.50;91.20
22161;DHT22;49035;48.812;11.762;2023-05-10T13:03:40;19.20;89.80
22161;DHT22;49035;48.812;11.762;2023-05-10T13:06:05;19.10;91.40
22161;DHT22;49035;48.812;11.762;2023-05-10T13:08:32;19.20;91.80
22161;DHT22;49035;48.812;11.762;2023-05-10T13:11:02;19.10;94.40
22161;DHT22;49035;48.812;11.762;2023-05-10T13:13:28;19.20;95.50
22161;DHT22;49035;48.812;11.762;2023-05-10T13:15:53;19.40;95.50
22161;DHT22;49035;48.812;11.762;2023-05-10T13:18:19;19.80;95.50
22161;DHT22;49035;48.812;11.762;2023-05-10T13:20:45;20.10;93.80
22161;DHT22;49035;48.812;11.762;2023-05-10T13:23:10;20.10;94.40
22161;DHT22;49035;48.812;11.762;2023-05-10T13:25:36;20.30;94.10
22161;DHT22;49035;48.812;11.762;2023-05-10T13:28:02;20.60;93.50
22161;DHT22;49035;48.812;11.762;2023-05-10T13:30:27;20.60;91.50
22161;DHT22;49035;48.812;11.762;2023-05-10T13:32:57;20.60;93.20
22161;DHT22;49035;48.812;11.762;2023-05-10T13:35:22;20.70;91.90
22161;DHT22;49035;48.812;11.762;2023-05-10T13:37:48;20.50;92.30
22161;DHT22;49035;48.812;11.762;2023-05-10T13:40:14;19.90;91.80
22161;DHT22;49035;48.812;11.762;2023-05-10T13:42:41;19.90;92.00
22161;DHT22;49035;48.812;11.762;2023-05-10T13:45:07;19.60;88.40
22161;DHT22;49035;48.812;11.762;2023-05-10T13:47:32;19.30;90.50
22161;DHT22;49035;48.812;11.762;2023-05-10T13:49:58;19.10;94.50
22161;DHT22;49035;48.812;11.762;2023-05-10T13:52:23;19.00;94.20
22161;DHT22;49035;48.812;11.762;2023-05-10T13:54:49;18.70;95.50
22161;DHT22;49035;48.812;11.762;2023-05-10T13:57:17;17.90;95.90
22161;DHT22;49035;48.812;11.762;2023-05-10T13:59:42;17.50;99.20
22161;DHT22;49035;48.812;11.762;2023-05-10T14:02:08;17.30;99.90
22161;DHT22;49035;48.812;11.762;2023-05-10T14:04:33;17.20;99.90
22161;DHT22;49035;48.812;11.762;2023-05-10T14:07:00;16.90;99.90
22161;DHT22;49035;48.812;11.762;2023-05-10T14:09:26;16.70;99.90
22161;DHT22;49035;48.812;11.762;2023-05-10T14:11:51;16.80;99.90
22161;DHT22;49035;48.812;11.762;2023-05-10T14:14:17;16.60;99.90
22161;DHT22;49035;48.812;11.762;2023-05-10T14:16:44;16.40;99.90
22161;DHT22;49035;48.812;11.762;2023-05-10T14:19:10;16.30;99.90
22161;DHT22;49035;48.812;11.762;2023-05-10T14:21:36;15.90;99.90
22161;DHT22;49035;48.812;11.762;2023-05-10T14:24:01;15.80;99.90
22161;DHT22;49035;48.812;11.762;2023-05-10T14:26:27;15.90;99.90
22161;DHT22;49035;48.812;11.762;2023-05-10T14:28:53;15.90;99.90
22161;DHT22;49035;48.812;11.762;2023-05-10T14:31:18;15.60;99.90
22161;DHT22;49035;48.812;11.762;2023-05-10T14:33:46;15.40;99.90
22161;DHT22;49035;48.812;11.762;2023-05-10T14:36:12;15.20;99.90
22161;DHT22;49035;48.812;11.762;2023-05-10T14:38:37;14.90;99.90
22161;DHT22;49035;48.812;11.762;2023-05-10T14:41:03;14.70;99.90
22161;DHT22;49035;48.812;11.762;2023-05-10T14:43:29;14.60;99.90
22161;DHT22;49035;48.812;11.762;2023-05-10T14:45:55;14.30;99.90
22161;DHT22;49035;48.812;11.762;2023-05-10T14:48:21;14.20;99.90
22161;DHT22;49035;48.812;11.762;2023-05-10T14:50:46;14.20;99.90
22161;DHT22;49035;48.812;11.762;2023-05-10T14:53:12;14.20;99.90
22161;DHT22;49035;48.812;11.762;2023-05-10T14:55:38;14.20;99.90
22161;DHT22;49035;48.812;11.762;2023-05-10T14:58:04;14.20;99.90
22161;DHT22;49035;48.812;11.762;2023-05-10T15:00:30;14.20;99.90
22161;DHT22;49035;48.812;11.762;2023-05-10T15:02:55;14.30;99.90
22161;DHT22;49035;48.812;11.762;2023-05-10T15:05:21;14.20;99.90
22161;DHT22;49035;48.812;11.762;2023-05-10T15:07:47;14.30;99.90
22161;DHT22;49035;48.812;11.762;2023-05-10T15:10:14;14.30;99.90
22161;DHT22;49035;48.812;11.762;2023-05-10T15:12:40;14.40;99.90
22161;DHT22;49035;48.812;11.762;2023-05-10T15:15:06;14.40;99.90
22161;DHT22;49035;48.812;11.762;2023-05-10T15:17:32;14.30;99.90
22161;DHT22;49035;48.812;11.762;2023-05-10T15:19:58;14.40;99.90
22161;DHT22;49035;48.812;11.762;2023-05-10T15:22:24;14.40;99.90
22161;DHT22;49035;48.812;11.762;2023-05-10T15:24:49;14.50;99.90
22161;DHT22;49035;48.812;11.762;2023-05-10T15:27:15;14.40;99.90
22161;DHT22;49035;48.812;11.762;2023-05-10T15:29:41;14.50;99.90
22161;DHT22;49035;48.812;11.762;2023-05-10T15:32:06;14.50;99.90
22161;DHT22;49035;48.812;11.762;2023-05-10T15:34:32;14.60;99.90
22161;DHT22;49035;48.812;11.762;2023-05-10T15:36:58;14.70;99.90
22161;DHT22;49035;48.812;11.762;2023-05-10T15:39:23;14.70;99.90
22161;DHT22;49035;48.812;11.762;2023-05-10T15:41:49;14.70;99.90
22161;DHT22;49035;48.812;11.762;2023-05-10T15:44:15;14.70;99.90
22161;DHT22;49035;48.812;11.762;2023-05-10T15:46:40;14.70;99.90
22161;DHT22;49035;48.812;11.762;2023-05-10T15:49:06;14.60;99.90
22161;DHT22;49035;48.812;11.762;2023-05-10T15:51:31;14.50;99.90
22161;DHT22;49035;48.812;11.762;2023-05-10T15:54:00;14.30;99.90
22161;DHT22;49035;48.812;11.762;2023-05-10T15:56:27;14.10;99.90